sensor_id;sensor_type;location;lat;lon;timestamp;P1;durP1;ratioP1;P2;durP2;ratioP2
40929;SDS011;26659;47.962;21.652;2022-08-19T00:00:03;11.25;;;4.57;;
40929;SDS011;26659;47.962;21.652;2022-08-19T00:02:31;11.55;;;4.68;;
40929;SDS011;26659;47.962;21.652;2022-08-19T00:04:57;10.98;;;4.07;;
40929;SDS011;26659;47.962;21.652;2022-08-19T00:07:22;13.00;;;5.13;;
40929;SDS011;26659;47.962;21.652;2022-08-19T00:09:48;12.85;;;5.03;;
40929;SDS011;26659;47.962;21.652;2022-08-19T00:12:13;9.95;;;4.35;;
40929;SDS011;26659;47.962;21.652;2022-08-19T00:14:40;10.17;;;4.63;;
40929;SDS011;26659;47.962;21.652;2022-08-19T00:17:06;11.25;;;4.97;;
40929;SDS011;26659;47.962;21.652;2022-08-19T00:19:32;10.23;;;4.30;;
40929;SDS011;26659;47.962;21.652;2022-08-19T00:21:59;9.52;;;3.72;;
40929;SDS011;26659;47.962;21.652;2022-08-19T00:24:24;14.02;;;4.68;;
40929;SDS011;26659;47.962;21.652;2022-08-19T00:26:50;14.57;;;5.53;;
40929;SDS011;26659;47.962;21.652;2022-08-19T00:29:17;13.77;;;4.93;;
40929;SDS011;26659;47.962;21.652;2022-08-19T00:31:48;10.57;;;4.88;;
40929;SDS011;26659;47.962;21.652;2022-08-19T00:34:15;11.63;;;5.45;;
40929;SDS011;26659;47.962;21.652;2022-08-19T00:36:41;11.52;;;5.13;;
40929;SDS011;26659;47.962;21.652;2022-08-19T00:39:07;10.20;;;4.25;;
40929;SDS011;26659;47.962;21.652;2022-08-19T00:41:33;9.53;;;4.37;;
40929;SDS011;26659;47.962;21.652;2022-08-19T00:44:32;16.42;;;5.25;;
40929;SDS011;26659;47.962;21.652;2022-08-19T00:46:53;13.07;;;5.43;;
40929;SDS011;26659;47.962;21.652;2022-08-19T00:49:25;11.95;;;4.95;;
40929;SDS011;26659;47.962;21.652;2022-08-19T00:52:04;12.57;;;4.57;;
40929;SDS011;26659;47.962;21.652;2022-08-19T00:54:33;12.93;;;5.03;;
40929;SDS011;26659;47.962;21.652;2022-08-19T00:57:01;9.73;;;4.40;;
40929;SDS011;26659;47.962;21.652;2022-08-19T00:59:31;12.25;;;5.53;;
40929;SDS011;26659;47.962;21.652;2022-08-19T01:01:58;16.35;;;5.95;;
40929;SDS011;26659;47.962;21.652;2022-08-19T01:04:24;12.30;;;5.13;;
40929;SDS011;26659;47.962;21.652;2022-08-19T01:06:50;10.82;;;5.43;;
40929;SDS011;26659;47.962;21.652;2022-08-19T01:09:15;10.02;;;4.97;;
40929;SDS011;26659;47.962;21.652;2022-08-19T01:11:41;13.75;;;5.63;;
40929;SDS011;26659;47.962;21.652;2022-08-19T01:14:10;13.98;;;6.38;;
40929;SDS011;26659;47.962;21.652;2022-08-19T01:16:37;15.50;;;6.25;;
40929;SDS011;26659;47.962;21.652;2022-08-19T01:21:40;12.05;;;5.07;;
40929;SDS011;26659;47.962;21.652;2022-08-19T01:24:11;12.17;;;5.93;;
40929;SDS011;26659;47.962;21.652;2022-08-19T01:26:40;15.57;;;6.47;;
40929;SDS011;26659;47.962;21.652;2022-08-19T01:29:08;14.27;;;6.63;;
40929;SDS011;26659;47.962;21.652;2022-08-19T01:31:34;11.10;;;4.93;;
40929;SDS011;26659;47.962;21.652;2022-08-19T01:34:01;16.85;;;6.13;;
40929;SDS011;26659;47.962;21.652;2022-08-19T01:36:37;15.82;;;6.78;;
40929;SDS011;26659;47.962;21.652;2022-08-19T01:39:09;12.82;;;5.78;;
40929;SDS011;26659;47.962;21.652;2022-08-19T01:41:38;16.98;;;6.18;;
40929;SDS011;26659;47.962;21.652;2022-08-19T01:44:05;14.15;;;6.50;;
40929;SDS011;26659;47.962;21.652;2022-08-19T01:46:32;14.18;;;6.00;;
40929;SDS011;26659;47.962;21.652;2022-08-19T01:48:58;14.43;;;6.53;;
40929;SDS011;26659;47.962;21.652;2022-08-19T01:51:24;14.35;;;6.70;;
40929;SDS011;26659;47.962;21.652;2022-08-19T01:53:50;15.70;;;6.95;;
40929;SDS011;26659;47.962;21.652;2022-08-19T01:56:17;16.42;;;6.70;;
40929;SDS011;26659;47.962;21.652;2022-08-19T01:58:48;16.35;;;6.93;;
40929;SDS011;26659;47.962;21.652;2022-08-19T02:01:16;15.25;;;6.72;;
40929;SDS011;26659;47.962;21.652;2022-08-19T02:03:42;13.07;;;5.60;;
40929;SDS011;26659;47.962;21.652;2022-08-19T02:06:08;15.27;;;6.88;;
40929;SDS011;26659;47.962;21.652;2022-08-19T02:08:35;13.80;;;6.97;;
40929;SDS011;26659;47.962;21.652;2022-08-19T02:11:02;18.30;;;7.05;;
40929;SDS011;26659;47.962;21.652;2022-08-19T02:13:28;19.80;;;9.45;;
40929;SDS011;26659;47.962;21.652;2022-08-19T02:15:54;16.77;;;7.38;;
40929;SDS011;26659;47.962;21.652;2022-08-19T02:18:19;17.45;;;7.72;;
40929;SDS011;26659;47.962;21.652;2022-08-19T02:20:45;15.75;;;7.10;;
40929;SDS011;26659;47.962;21.652;2022-08-19T02:25:38;18.33;;;7.13;;
40929;SDS011;26659;47.962;21.652;2022-08-19T02:28:04;14.82;;;7.95;;
40929;SDS011;26659;47.962;21.652;2022-08-19T02:30:30;20.77;;;7.70;;
40929;SDS011;26659;47.962;21.652;2022-08-19T02:32:56;24.98;;;9.02;;
40929;SDS011;26659;47.962;21.652;2022-08-19T02:35:22;15.90;;;7.93;;
40929;SDS011;26659;47.962;21.652;2022-08-19T02:37:48;15.65;;;8.00;;
40929;SDS011;26659;47.962;21.652;2022-08-19T02:40:32;16.85;;;9.27;;
40929;SDS011;26659;47.962;21.652;2022-08-19T02:43:05;16.08;;;8.88;;
40929;SDS011;26659;47.962;21.652;2022-08-19T02:45:37;18.55;;;9.07;;
40929;SDS011;26659;47.962;21.652;2022-08-19T02:48:05;14.77;;;7.07;;
40929;SDS011;26659;47.962;21.652;2022-08-19T02:50:31;17.38;;;8.27;;
40929;SDS011;26659;47.962;21.652;2022-08-19T02:52:57;20.80;;;9.07;;
40929;SDS011;26659;47.962;21.652;2022-08-19T02:55:22;21.70;;;8.25;;
40929;SDS011;26659;47.962;21.652;2022-08-19T02:57:48;19.25;;;8.70;;
40929;SDS011;26659;47.962;21.652;2022-08-19T03:00:14;15.88;;;7.85;;
40929;SDS011;26659;47.962;21.652;2022-08-19T03:02:40;24.48;;;9.30;;
40929;SDS011;26659;47.962;21.652;2022-08-19T03:05:07;21.83;;;8.73;;
40929;SDS011;26659;47.962;21.652;2022-08-19T03:07:34;22.52;;;9.93;;
40929;SDS011;26659;47.962;21.652;2022-08-19T03:10:00;21.88;;;9.25;;
40929;SDS011;26659;47.962;21.652;2022-08-19T03:12:26;33.25;;;9.30;;
40929;SDS011;26659;47.962;21.652;2022-08-19T03:14:51;19.13;;;8.82;;
40929;SDS011;26659;47.962;21.652;2022-08-19T03:17:17;18.45;;;8.90;;
40929;SDS011;26659;47.962;21.652;2022-08-19T03:19:43;20.23;;;8.63;;
40929;SDS011;26659;47.962;21.652;2022-08-19T03:22:09;17.50;;;8.60;;
40929;SDS011;26659;47.962;21.652;2022-08-19T03:24:34;19.73;;;8.95;;
40929;SDS011;26659;47.962;21.652;2022-08-19T03:27:00;18.48;;;9.43;;
40929;SDS011;26659;47.962;21.652;2022-08-19T03:29:26;19.75;;;9.35;;
40929;SDS011;26659;47.962;21.652;2022-08-19T03:31:53;17.67;;;7.85;;
40929;SDS011;26659;47.962;21.652;2022-08-19T03:34:29;17.83;;;8.50;;
40929;SDS011;26659;47.962;21.652;2022-08-19T03:39:24;17.05;;;8.43;;
40929;SDS011;26659;47.962;21.652;2022-08-19T03:41:51;19.73;;;9.93;;
40929;SDS011;26659;47.962;21.652;2022-08-19T03:44:18;20.08;;;8.55;;
40929;SDS011;26659;47.962;21.652;2022-08-19T03:46:48;19.08;;;8.88;;
40929;SDS011;26659;47.962;21.652;2022-08-19T03:49:19;16.40;;;8.40;;
40929;SDS011;26659;47.962;21.652;2022-08-19T03:51:46;20.20;;;8.80;;
40929;SDS011;26659;47.962;21.652;2022-08-19T03:54:14;19.27;;;8.60;;
40929;SDS011;26659;47.962;21.652;2022-08-19T03:56:41;19.92;;;9.48;;
40929;SDS011;26659;47.962;21.652;2022-08-19T03:59:09;20.38;;;9.93;;
40929;SDS011;26659;47.962;21.652;2022-08-19T04:01:41;18.02;;;9.75;;
40929;SDS011;26659;47.962;21.652;2022-08-19T04:04:07;20.73;;;10.30;;
40929;SDS011;26659;47.962;21.652;2022-08-19T04:06:34;19.77;;;9.65;;
40929;SDS011;26659;47.962;21.652;2022-08-19T04:09:03;17.80;;;9.95;;
40929;SDS011;26659;47.962;21.652;2022-08-19T04:11:31;16.45;;;9.50;;
40929;SDS011;26659;47.962;21.652;2022-08-19T04:13:59;16.98;;;9.40;;
40929;SDS011;26659;47.962;21.652;2022-08-19T04:16:25;18.25;;;8.93;;
40929;SDS011;26659;47.962;21.652;2022-08-19T04:18:54;20.17;;;9.40;;
40929;SDS011;26659;47.962;21.652;2022-08-19T04:23:47;21.35;;;9.50;;
40929;SDS011;26659;47.962;21.652;2022-08-19T04:26:14;17.85;;;9.88;;
40929;SDS011;26659;47.962;21.652;2022-08-19T04:31:06;21.47;;;9.17;;
40929;SDS011;26659;47.962;21.652;2022-08-19T04:33:37;16.05;;;8.38;;
40929;SDS011;26659;47.962;21.652;2022-08-19T04:36:02;15.73;;;8.90;;
40929;SDS011;26659;47.962;21.652;2022-08-19T04:38:28;18.05;;;8.60;;
40929;SDS011;26659;47.962;21.652;2022-08-19T04:40:53;19.08;;;9.00;;
40929;SDS011;26659;47.962;21.652;2022-08-19T04:43:37;15.55;;;8.15;;
40929;SDS011;26659;47.962;21.652;2022-08-19T04:46:04;20.55;;;8.98;;
40929;SDS011;26659;47.962;21.652;2022-08-19T04:48:37;17.50;;;8.60;;
40929;SDS011;26659;47.962;21.652;2022-08-19T04:51:06;20.52;;;7.72;;
40929;SDS011;26659;47.962;21.652;2022-08-19T04:53:34;14.32;;;8.18;;
40929;SDS011;26659;47.962;21.652;2022-08-19T04:56:06;18.55;;;8.15;;
40929;SDS011;26659;47.962;21.652;2022-08-19T04:58:37;16.80;;;8.93;;
40929;SDS011;26659;47.962;21.652;2022-08-19T05:01:07;14.57;;;7.32;;
40929;SDS011;26659;47.962;21.652;2022-08-19T05:03:33;16.65;;;7.68;;
40929;SDS011;26659;47.962;21.652;2022-08-19T05:06:06;19.25;;;7.28;;
40929;SDS011;26659;47.962;21.652;2022-08-19T05:08:33;13.93;;;6.95;;
40929;SDS011;26659;47.962;21.652;2022-08-19T05:11:01;12.73;;;6.07;;
40929;SDS011;26659;47.962;21.652;2022-08-19T05:13:34;14.38;;;6.65;;
40929;SDS011;26659;47.962;21.652;2022-08-19T05:16:00;15.30;;;7.13;;
40929;SDS011;26659;47.962;21.652;2022-08-19T05:18:25;13.80;;;6.90;;
40929;SDS011;26659;47.962;21.652;2022-08-19T05:21:11;11.63;;;5.78;;
40929;SDS011;26659;47.962;21.652;2022-08-19T05:23:58;10.73;;;5.65;;
40929;SDS011;26659;47.962;21.652;2022-08-19T05:26:24;12.90;;;5.67;;
40929;SDS011;26659;47.962;21.652;2022-08-19T05:28:53;13.88;;;7.63;;
40929;SDS011;26659;47.962;21.652;2022-08-19T05:31:19;11.68;;;5.90;;
40929;SDS011;26659;47.962;21.652;2022-08-19T05:33:45;11.75;;;5.32;;
40929;SDS011;26659;47.962;21.652;2022-08-19T05:36:11;15.97;;;5.57;;
40929;SDS011;26659;47.962;21.652;2022-08-19T05:38:37;11.00;;;5.70;;
40929;SDS011;26659;47.962;21.652;2022-08-19T05:41:07;12.83;;;5.50;;
40929;SDS011;26659;47.962;21.652;2022-08-19T05:43:33;13.27;;;5.28;;
40929;SDS011;26659;47.962;21.652;2022-08-19T05:45:59;13.47;;;5.27;;
40929;SDS011;26659;47.962;21.652;2022-08-19T05:48:24;14.77;;;5.87;;
40929;SDS011;26659;47.962;21.652;2022-08-19T05:50:51;9.88;;;4.55;;
40929;SDS011;26659;47.962;21.652;2022-08-19T05:53:17;12.63;;;5.30;;
40929;SDS011;26659;47.962;21.652;2022-08-19T05:55:42;14.57;;;6.13;;
40929;SDS011;26659;47.962;21.652;2022-08-19T05:58:08;11.70;;;4.23;;
40929;SDS011;26659;47.962;21.652;2022-08-19T06:00:34;10.67;;;4.03;;
40929;SDS011;26659;47.962;21.652;2022-08-19T06:03:00;15.40;;;5.25;;
40929;SDS011;26659;47.962;21.652;2022-08-19T06:05:29;11.82;;;4.90;;
40929;SDS011;26659;47.962;21.652;2022-08-19T06:07:55;9.43;;;4.25;;
40929;SDS011;26659;47.962;21.652;2022-08-19T06:10:21;12.07;;;4.57;;
40929;SDS011;26659;47.962;21.652;2022-08-19T06:12:47;10.60;;;5.30;;
40929;SDS011;26659;47.962;21.652;2022-08-19T06:15:13;11.75;;;4.82;;
40929;SDS011;26659;47.962;21.652;2022-08-19T06:17:39;11.88;;;4.40;;
40929;SDS011;26659;47.962;21.652;2022-08-19T06:20:08;11.65;;;4.30;;
40929;SDS011;26659;47.962;21.652;2022-08-19T06:22:43;13.70;;;5.07;;
40929;SDS011;26659;47.962;21.652;2022-08-19T06:25:11;14.63;;;5.07;;
40929;SDS011;26659;47.962;21.652;2022-08-19T06:27:38;9.57;;;3.63;;
40929;SDS011;26659;47.962;21.652;2022-08-19T06:30:04;11.45;;;4.25;;
40929;SDS011;26659;47.962;21.652;2022-08-19T06:32:30;9.13;;;3.95;;
40929;SDS011;26659;47.962;21.652;2022-08-19T06:34:55;10.37;;;4.63;;
40929;SDS011;26659;47.962;21.652;2022-08-19T06:37:21;10.67;;;3.57;;
40929;SDS011;26659;47.962;21.652;2022-08-19T06:39:47;12.57;;;4.30;;
40929;SDS011;26659;47.962;21.652;2022-08-19T06:42:14;11.18;;;3.97;;
40929;SDS011;26659;47.962;21.652;2022-08-19T06:44:42;11.52;;;4.00;;
40929;SDS011;26659;47.962;21.652;2022-08-19T06:47:10;10.13;;;4.05;;
40929;SDS011;26659;47.962;21.652;2022-08-19T06:49:39;11.10;;;3.65;;
40929;SDS011;26659;47.962;21.652;2022-08-19T06:52:04;8.73;;;3.30;;
40929;SDS011;26659;47.962;21.652;2022-08-19T06:54:30;10.85;;;4.13;;
40929;SDS011;26659;47.962;21.652;2022-08-19T06:56:57;15.67;;;3.90;;
40929;SDS011;26659;47.962;21.652;2022-08-19T06:59:24;7.88;;;3.17;;
40929;SDS011;26659;47.962;21.652;2022-08-19T07:01:53;8.07;;;3.38;;
40929;SDS011;26659;47.962;21.652;2022-08-19T07:04:22;8.05;;;3.63;;
40929;SDS011;26659;47.962;21.652;2022-08-19T07:06:49;7.50;;;3.17;;
40929;SDS011;26659;47.962;21.652;2022-08-19T07:09:21;11.85;;;3.83;;
40929;SDS011;26659;47.962;21.652;2022-08-19T07:11:48;10.02;;;3.67;;
40929;SDS011;26659;47.962;21.652;2022-08-19T07:14:16;8.00;;;3.55;;
40929;SDS011;26659;47.962;21.652;2022-08-19T07:16:43;10.23;;;3.78;;
40929;SDS011;26659;47.962;21.652;2022-08-19T07:19:12;8.30;;;3.35;;
40929;SDS011;26659;47.962;21.652;2022-08-19T07:21:38;11.65;;;4.00;;
40929;SDS011;26659;47.962;21.652;2022-08-19T07:24:04;9.93;;;3.70;;
40929;SDS011;26659;47.962;21.652;2022-08-19T07:26:30;10.97;;;3.93;;
40929;SDS011;26659;47.962;21.652;2022-08-19T07:28:57;9.85;;;4.05;;
40929;SDS011;26659;47.962;21.652;2022-08-19T07:31:25;15.10;;;5.05;;
40929;SDS011;26659;47.962;21.652;2022-08-19T07:33:52;11.80;;;4.20;;
40929;SDS011;26659;47.962;21.652;2022-08-19T07:36:26;12.85;;;3.70;;
40929;SDS011;26659;47.962;21.652;2022-08-19T07:38:57;8.98;;;3.85;;
40929;SDS011;26659;47.962;21.652;2022-08-19T07:41:26;9.95;;;3.97;;
40929;SDS011;26659;47.962;21.652;2022-08-19T07:43:53;13.90;;;4.18;;
40929;SDS011;26659;47.962;21.652;2022-08-19T07:46:19;12.55;;;3.88;;
40929;SDS011;26659;47.962;21.652;2022-08-19T07:48:46;7.68;;;3.53;;
40929;SDS011;26659;47.962;21.652;2022-08-19T07:51:15;9.52;;;4.00;;
40929;SDS011;26659;47.962;21.652;2022-08-19T07:53:43;10.55;;;4.18;;
40929;SDS011;26659;47.962;21.652;2022-08-19T07:56:10;9.65;;;3.53;;
40929;SDS011;26659;47.962;21.652;2022-08-19T08:01:04;9.70;;;4.00;;
40929;SDS011;26659;47.962;21.652;2022-08-19T08:03:32;7.25;;;3.40;;
40929;SDS011;26659;47.962;21.652;2022-08-19T08:06:17;9.95;;;4.15;;
40929;SDS011;26659;47.962;21.652;2022-08-19T08:09:03;10.15;;;3.53;;
40929;SDS011;26659;47.962;21.652;2022-08-19T08:11:47;10.38;;;4.90;;
40929;SDS011;26659;47.962;21.652;2022-08-19T08:14:26;12.90;;;3.70;;
40929;SDS011;26659;47.962;21.652;2022-08-19T08:16:53;9.57;;;4.22;;
40929;SDS011;26659;47.962;21.652;2022-08-19T08:19:20;7.78;;;3.40;;
40929;SDS011;26659;47.962;21.652;2022-08-19T08:21:48;17.27;;;4.53;;
40929;SDS011;26659;47.962;21.652;2022-08-19T08:24:15;9.68;;;3.25;;
40929;SDS011;26659;47.962;21.652;2022-08-19T08:29:09;12.70;;;3.30;;
40929;SDS011;26659;47.962;21.652;2022-08-19T08:31:36;8.35;;;3.65;;
40929;SDS011;26659;47.962;21.652;2022-08-19T08:34:02;8.07;;;3.45;;
40929;SDS011;26659;47.962;21.652;2022-08-19T08:36:28;10.02;;;3.58;;
40929;SDS011;26659;47.962;21.652;2022-08-19T08:38:53;7.60;;;3.03;;
40929;SDS011;26659;47.962;21.652;2022-08-19T08:44:02;13.20;;;3.53;;
40929;SDS011;26659;47.962;21.652;2022-08-19T08:46:39;9.00;;;3.50;;
40929;SDS011;26659;47.962;21.652;2022-08-19T08:51:41;13.10;;;3.53;;
40929;SDS011;26659;47.962;21.652;2022-08-19T08:54:12;10.90;;;3.55;;
40929;SDS011;26659;47.962;21.652;2022-08-19T08:56:39;7.38;;;3.47;;
40929;SDS011;26659;47.962;21.652;2022-08-19T08:59:10;12.45;;;3.33;;
40929;SDS011;26659;47.962;21.652;2022-08-19T09:01:44;8.27;;;3.17;;
40929;SDS011;26659;47.962;21.652;2022-08-19T09:04:09;9.93;;;3.10;;
40929;SDS011;26659;47.962;21.652;2022-08-19T09:06:42;8.57;;;3.10;;
40929;SDS011;26659;47.962;21.652;2022-08-19T09:09:18;10.07;;;3.40;;
40929;SDS011;26659;47.962;21.652;2022-08-19T09:14:48;8.55;;;3.15;;
40929;SDS011;26659;47.962;21.652;2022-08-19T09:17:19;12.32;;;3.17;;
40929;SDS011;26659;47.962;21.652;2022-08-19T09:20:38;11.00;;;2.85;;
40929;SDS011;26659;47.962;21.652;2022-08-19T09:22:44;7.40;;;2.47;;
40929;SDS011;26659;47.962;21.652;2022-08-19T09:25:10;9.43;;;2.83;;
40929;SDS011;26659;47.962;21.652;2022-08-19T09:27:42;14.93;;;3.88;;
40929;SDS011;26659;47.962;21.652;2022-08-19T09:30:08;5.75;;;2.65;;
40929;SDS011;26659;47.962;21.652;2022-08-19T09:32:39;10.45;;;2.97;;
40929;SDS011;26659;47.962;21.652;2022-08-19T09:35:07;13.18;;;3.30;;
40929;SDS011;26659;47.962;21.652;2022-08-19T09:37:33;11.68;;;2.90;;
40929;SDS011;26659;47.962;21.652;2022-08-19T09:39:58;4.83;;;2.50;;
40929;SDS011;26659;47.962;21.652;2022-08-19T09:42:24;10.07;;;3.57;;
40929;SDS011;26659;47.962;21.652;2022-08-19T09:44:49;9.80;;;2.63;;
40929;SDS011;26659;47.962;21.652;2022-08-19T09:47:14;9.30;;;2.60;;
40929;SDS011;26659;47.962;21.652;2022-08-19T09:49:40;7.28;;;2.92;;
40929;SDS011;26659;47.962;21.652;2022-08-19T09:52:07;6.13;;;2.63;;
40929;SDS011;26659;47.962;21.652;2022-08-19T09:54:34;9.25;;;2.88;;
40929;SDS011;26659;47.962;21.652;2022-08-19T09:57:00;9.27;;;3.10;;
40929;SDS011;26659;47.962;21.652;2022-08-19T09:59:25;5.82;;;2.40;;
40929;SDS011;26659;47.962;21.652;2022-08-19T10:01:51;7.28;;;2.63;;
40929;SDS011;26659;47.962;21.652;2022-08-19T10:04:17;6.30;;;2.38;;
40929;SDS011;26659;47.962;21.652;2022-08-19T10:06:42;8.70;;;2.83;;
40929;SDS011;26659;47.962;21.652;2022-08-19T10:09:09;8.63;;;2.77;;
40929;SDS011;26659;47.962;21.652;2022-08-19T10:11:36;5.75;;;2.38;;
40929;SDS011;26659;47.962;21.652;2022-08-19T10:14:05;6.32;;;1.90;;
40929;SDS011;26659;47.962;21.652;2022-08-19T10:16:31;9.55;;;2.90;;
40929;SDS011;26659;47.962;21.652;2022-08-19T10:21:27;7.45;;;2.25;;
40929;SDS011;26659;47.962;21.652;2022-08-19T10:23:55;8.35;;;2.60;;
40929;SDS011;26659;47.962;21.652;2022-08-19T10:26:29;7.53;;;2.65;;
40929;SDS011;26659;47.962;21.652;2022-08-19T10:28:57;7.55;;;2.33;;
40929;SDS011;26659;47.962;21.652;2022-08-19T10:31:27;5.63;;;2.30;;
40929;SDS011;26659;47.962;21.652;2022-08-19T10:33:55;10.13;;;2.38;;
40929;SDS011;26659;47.962;21.652;2022-08-19T10:36:33;9.05;;;1.95;;
40929;SDS011;26659;47.962;21.652;2022-08-19T10:39:02;8.40;;;2.38;;
40929;SDS011;26659;47.962;21.652;2022-08-19T10:41:34;8.30;;;1.80;;
40929;SDS011;26659;47.962;21.652;2022-08-19T10:44:03;7.53;;;1.60;;
40929;SDS011;26659;47.962;21.652;2022-08-19T10:46:31;7.85;;;2.10;;
40929;SDS011;26659;47.962;21.652;2022-08-19T10:48:58;10.02;;;2.08;;
40929;SDS011;26659;47.962;21.652;2022-08-19T10:51:25;7.60;;;1.90;;
40929;SDS011;26659;47.962;21.652;2022-08-19T10:54:08;7.05;;;1.70;;
40929;SDS011;26659;47.962;21.652;2022-08-19T10:56:34;12.00;;;1.57;;
40929;SDS011;26659;47.962;21.652;2022-08-19T11:01:49;8.13;;;2.20;;
40929;SDS011;26659;47.962;21.652;2022-08-19T11:04:15;8.63;;;2.20;;
40929;SDS011;26659;47.962;21.652;2022-08-19T11:06:46;7.60;;;1.83;;
40929;SDS011;26659;47.962;21.652;2022-08-19T11:09:13;4.97;;;1.83;;
40929;SDS011;26659;47.962;21.652;2022-08-19T11:11:41;7.22;;;2.00;;
40929;SDS011;26659;47.962;21.652;2022-08-19T11:14:08;5.50;;;1.58;;
40929;SDS011;26659;47.962;21.652;2022-08-19T11:16:36;5.10;;;1.80;;
40929;SDS011;26659;47.962;21.652;2022-08-19T11:19:03;4.07;;;1.80;;
40929;SDS011;26659;47.962;21.652;2022-08-19T11:21:31;6.15;;;1.63;;
40929;SDS011;26659;47.962;21.652;2022-08-19T11:24:06;9.98;;;1.65;;
40929;SDS011;26659;47.962;21.652;2022-08-19T11:26:34;5.40;;;1.92;;
40929;SDS011;26659;47.962;21.652;2022-08-19T11:29:01;4.70;;;1.90;;
40929;SDS011;26659;47.962;21.652;2022-08-19T11:31:29;5.60;;;2.35;;
40929;SDS011;26659;47.962;21.652;2022-08-19T11:33:56;5.60;;;1.95;;
40929;SDS011;26659;47.962;21.652;2022-08-19T11:36:24;6.43;;;2.10;;
40929;SDS011;26659;47.962;21.652;2022-08-19T11:38:51;5.88;;;2.20;;
40929;SDS011;26659;47.962;21.652;2022-08-19T11:41:17;4.90;;;2.05;;
40929;SDS011;26659;47.962;21.652;2022-08-19T11:43:45;5.18;;;2.25;;
40929;SDS011;26659;47.962;21.652;2022-08-19T11:46:11;6.17;;;2.00;;
40929;SDS011;26659;47.962;21.652;2022-08-19T11:48:39;5.95;;;1.85;;
40929;SDS011;26659;47.962;21.652;2022-08-19T11:51:07;7.25;;;2.33;;
40929;SDS011;26659;47.962;21.652;2022-08-19T11:53:37;4.93;;;2.03;;
40929;SDS011;26659;47.962;21.652;2022-08-19T11:56:06;7.20;;;2.05;;
40929;SDS011;26659;47.962;21.652;2022-08-19T11:58:33;10.25;;;2.50;;
40929;SDS011;26659;47.962;21.652;2022-08-19T12:00:59;10.70;;;2.08;;
40929;SDS011;26659;47.962;21.652;2022-08-19T12:03:24;6.22;;;2.38;;
40929;SDS011;26659;47.962;21.652;2022-08-19T12:05:50;6.60;;;2.40;;
40929;SDS011;26659;47.962;21.652;2022-08-19T12:08:16;14.25;;;2.30;;
40929;SDS011;26659;47.962;21.652;2022-08-19T12:13:11;6.15;;;1.90;;
40929;SDS011;26659;47.962;21.652;2022-08-19T12:15:41;5.57;;;2.53;;
40929;SDS011;26659;47.962;21.652;2022-08-19T12:18:07;5.83;;;2.10;;
40929;SDS011;26659;47.962;21.652;2022-08-19T12:20:37;14.05;;;2.78;;
40929;SDS011;26659;47.962;21.652;2022-08-19T12:23:04;5.80;;;2.45;;
40929;SDS011;26659;47.962;21.652;2022-08-19T12:25:32;7.40;;;2.08;;
40929;SDS011;26659;47.962;21.652;2022-08-19T12:27:58;9.52;;;1.90;;
40929;SDS011;26659;47.962;21.652;2022-08-19T12:30:23;6.22;;;2.20;;
40929;SDS011;26659;47.962;21.652;2022-08-19T12:32:49;5.73;;;2.43;;
40929;SDS011;26659;47.962;21.652;2022-08-19T12:35:16;6.03;;;2.00;;
40929;SDS011;26659;47.962;21.652;2022-08-19T12:37:42;5.05;;;2.05;;
40929;SDS011;26659;47.962;21.652;2022-08-19T12:40:10;4.55;;;1.95;;
40929;SDS011;26659;47.962;21.652;2022-08-19T12:42:37;6.35;;;2.03;;
40929;SDS011;26659;47.962;21.652;2022-08-19T12:45:06;6.85;;;2.17;;
40929;SDS011;26659;47.962;21.652;2022-08-19T12:47:32;5.55;;;2.00;;
40929;SDS011;26659;47.962;21.652;2022-08-19T12:49:58;7.27;;;2.30;;
40929;SDS011;26659;47.962;21.652;2022-08-19T12:52:24;5.10;;;1.93;;
40929;SDS011;26659;47.962;21.652;2022-08-19T12:54:52;7.28;;;2.15;;
40929;SDS011;26659;47.962;21.652;2022-08-19T12:57:19;7.40;;;2.35;;
40929;SDS011;26659;47.962;21.652;2022-08-19T12:59:45;9.93;;;2.20;;
40929;SDS011;26659;47.962;21.652;2022-08-19T13:02:10;6.43;;;2.20;;
40929;SDS011;26659;47.962;21.652;2022-08-19T13:04:36;10.80;;;2.77;;
40929;SDS011;26659;47.962;21.652;2022-08-19T13:07:05;4.32;;;1.77;;
40929;SDS011;26659;47.962;21.652;2022-08-19T13:09:33;4.70;;;1.95;;
40929;SDS011;26659;47.962;21.652;2022-08-19T13:11:58;6.80;;;2.20;;
40929;SDS011;26659;47.962;21.652;2022-08-19T13:14:27;5.00;;;2.03;;
40929;SDS011;26659;47.962;21.652;2022-08-19T13:16:54;6.93;;;1.73;;
40929;SDS011;26659;47.962;21.652;2022-08-19T13:19:19;5.83;;;1.80;;
40929;SDS011;26659;47.962;21.652;2022-08-19T13:21:49;5.95;;;1.92;;
40929;SDS011;26659;47.962;21.652;2022-08-19T13:24:16;3.97;;;1.75;;
40929;SDS011;26659;47.962;21.652;2022-08-19T13:26:41;9.25;;;2.33;;
40929;SDS011;26659;47.962;21.652;2022-08-19T13:29:07;6.03;;;2.00;;
40929;SDS011;26659;47.962;21.652;2022-08-19T13:31:51;8.40;;;2.00;;
40929;SDS011;26659;47.962;21.652;2022-08-19T13:34:35;4.45;;;1.55;;
40929;SDS011;26659;47.962;21.652;2022-08-19T13:37:02;5.57;;;1.85;;
40929;SDS011;26659;47.962;21.652;2022-08-19T13:39:29;9.50;;;1.80;;
40929;SDS011;26659;47.962;21.652;2022-08-19T13:41:57;6.18;;;2.00;;
40929;SDS011;26659;47.962;21.652;2022-08-19T13:44:25;7.30;;;2.60;;
40929;SDS011;26659;47.962;21.652;2022-08-19T13:46:54;6.65;;;1.95;;
40929;SDS011;26659;47.962;21.652;2022-08-19T13:49:24;4.75;;;1.70;;
40929;SDS011;26659;47.962;21.652;2022-08-19T13:51:49;7.03;;;2.03;;
40929;SDS011;26659;47.962;21.652;2022-08-19T13:54:15;5.75;;;1.77;;
40929;SDS011;26659;47.962;21.652;2022-08-19T13:56:41;5.73;;;1.90;;
40929;SDS011;26659;47.962;21.652;2022-08-19T13:59:08;4.75;;;2.05;;
40929;SDS011;26659;47.962;21.652;2022-08-19T14:01:34;6.78;;;1.92;;
40929;SDS011;26659;47.962;21.652;2022-08-19T14:04:00;10.18;;;2.20;;
40929;SDS011;26659;47.962;21.652;2022-08-19T14:06:26;5.43;;;2.10;;
40929;SDS011;26659;47.962;21.652;2022-08-19T14:08:51;3.67;;;1.70;;
40929;SDS011;26659;47.962;21.652;2022-08-19T14:11:17;3.47;;;1.70;;
40929;SDS011;26659;47.962;21.652;2022-08-19T14:13:43;10.25;;;2.22;;
40929;SDS011;26659;47.962;21.652;2022-08-19T14:16:09;4.68;;;1.75;;
40929;SDS011;26659;47.962;21.652;2022-08-19T14:18:37;5.30;;;1.70;;
40929;SDS011;26659;47.962;21.652;2022-08-19T14:21:03;4.70;;;1.60;;
40929;SDS011;26659;47.962;21.652;2022-08-19T14:23:29;6.70;;;2.20;;
40929;SDS011;26659;47.962;21.652;2022-08-19T14:26:06;9.65;;;2.10;;
40929;SDS011;26659;47.962;21.652;2022-08-19T14:28:32;8.43;;;2.08;;
40929;SDS011;26659;47.962;21.652;2022-08-19T14:30:58;6.03;;;2.10;;
40929;SDS011;26659;47.962;21.652;2022-08-19T14:33:24;7.87;;;1.90;;
40929;SDS011;26659;47.962;21.652;2022-08-19T14:35:49;6.83;;;2.00;;
40929;SDS011;26659;47.962;21.652;2022-08-19T14:38:16;7.60;;;2.13;;
40929;SDS011;26659;47.962;21.652;2022-08-19T14:40:43;5.72;;;2.15;;
40929;SDS011;26659;47.962;21.652;2022-08-19T14:43:09;5.30;;;2.03;;
40929;SDS011;26659;47.962;21.652;2022-08-19T14:45:35;9.38;;;2.05;;
40929;SDS011;26659;47.962;21.652;2022-08-19T14:48:03;10.57;;;2.13;;
40929;SDS011;26659;47.962;21.652;2022-08-19T14:50:30;11.25;;;2.00;;
40929;SDS011;26659;47.962;21.652;2022-08-19T14:55:25;6.95;;;1.58;;
40929;SDS011;26659;47.962;21.652;2022-08-19T14:57:50;6.55;;;2.00;;
40929;SDS011;26659;47.962;21.652;2022-08-19T15:00:16;12.25;;;2.30;;
40929;SDS011;26659;47.962;21.652;2022-08-19T15:02:42;8.60;;;1.90;;
40929;SDS011;26659;47.962;21.652;2022-08-19T15:05:10;8.90;;;2.17;;
40929;SDS011;26659;47.962;21.652;2022-08-19T15:07:37;7.15;;;1.65;;